Pagrindinis puslapis
METAR-TAF:

METAR-TAF

Oro uostai :

Santjagas, Čilė

platuma: 33-27-23S, ilguma: 070-32-48W, Aukštis: 646 m

Dabartinis oras

Ataskaita buvo paskelbta 48 minutes, ne 22:00 UTC
Vėjas 7 kt iš Vakarų/Pietvakarių, svyruoja nuo Pietų ir Vakarų/Šiaurės Vakarų
Temperatūra 28°C
Drėgmė 30%
Slėgis 1013 hPa
Matomumas 10 km arba daugiau
nėra debesų žemiau 1500 m ir nėra kamuolinių lietaus debesų

METAR: SCTB 252200Z 24007KT 180V300 CAVOK 28/09 Q1013

Laikas: 19:48 (22:48 UTC)


TAF: trūkstamas

Orai ataskaitas ir orų prognozės (METAR, TAF).

turimą stotys yra geltonos ir raudonos taškus žemėlapyje.

Perkelti pele per norėdami pamatyti stoties vardą.

Tada spustelėkite, norėdami matyti oro stebėjimo ir prognozės.

Norėdami pakeisti žemėlapį: spustelėkite ant žalios mygtukų su juodo kryžiaus žemyn,; žalią mygtuką su brūkšneliu, jei norite nutolinti; arba žalių rodyklių gretimoms žemėlapius.


METAR-TAF: